Terminal Aerodrome Forecast
Issued by NWS Portland, OR

Home | Current Version | Previous Version | Text Only | Print | Product List | Glossary On
Versions: 1 2 3 4 5 6 7 8 9 10 11 12 13 14 15 16 17 18 19 20 21 22 23 24 25 26 27 28 29 30 31 32 33 34 35 36 37 38 39 40 41 42 43 44 45 46 47 48 49 50
000
FTUS46 KPQR 172324
TAFEUG
TAF
KEUG 172324Z 1800/1824 20005KT P6SM -RA FEW006 BKN030 OVC050
     FM180200 17004KT 5SM BR SCT006 OVC035=

USA.gov is the U.S. government's official web portal to all federal, state and local government web resources and services.